createdAt,value
2019-05-11T00:01:26.758Z,82.07
2019-05-11T00:03:58.337Z,82.12
2019-05-11T00:06:30.830Z,82.24
2019-05-11T00:09:02.347Z,82.23
2019-05-11T00:11:33.884Z,81.64
2019-05-11T00:14:05.315Z,81.72
2019-05-11T00:16:36.827Z,81.14
2019-05-11T00:19:08.156Z,81.14
2019-05-11T00:21:40.915Z,80.47
2019-05-11T00:24:12.302Z,80.15
2019-05-11T00:26:43.750Z,80.45
2019-05-11T00:29:15.243Z,80.81
2019-05-11T00:31:46.764Z,81.51
2019-05-11T00:34:18.547Z,82.12
2019-05-11T00:36:49.959Z,81.75
2019-05-11T00:39:21.758Z,82.59
2019-05-11T00:41:53.259Z,82.81
2019-05-11T00:44:24.726Z,83.71
2019-05-11T00:46:56.176Z,82.65
2019-05-11T00:49:27.666Z,82.54
2019-05-11T00:51:59.157Z,83.18
2019-05-11T00:54:30.665Z,83.24
2019-05-11T00:57:01.950Z,83.46
2019-05-11T00:59:33.452Z,83.47
2019-05-11T01:02:04.863Z,83.33
2019-05-11T01:04:36.287Z,83.73
2019-05-11T01:07:07.773Z,83.84
2019-05-11T01:09:39.310Z,84.74
2019-05-11T01:12:10.775Z,84.64
2019-05-11T01:14:42.267Z,84.85
2019-05-11T01:17:13.701Z,84.81
2019-05-11T01:19:45.163Z,84.73
2019-05-11T01:22:16.574Z,84.88
2019-05-11T01:24:48.083Z,84.74
2019-05-11T01:27:19.472Z,85.06
2019-05-11T01:29:50.959Z,85.35
2019-05-11T01:32:22.475Z,85.69
2019-05-11T01:34:54.955Z,85.53
2019-05-11T01:37:26.405Z,85.93
2019-05-11T01:39:57.892Z,85.99
2019-05-11T01:42:29.306Z,86.10
2019-05-11T01:45:00.805Z,86.33
2019-05-11T01:47:32.308Z,86.56
2019-05-11T01:50:04.158Z,86.77
2019-05-11T01:52:35.533Z,87.13
2019-05-11T01:55:08.115Z,87.27
2019-05-11T01:57:39.536Z,87.45
2019-05-11T02:00:11.575Z,87.45
2019-05-11T02:02:43.046Z,87.53
2019-05-11T02:05:29.397Z,87.56
2019-05-11T02:08:02.153Z,87.68
2019-05-11T02:10:33.530Z,87.98
2019-05-11T02:13:04.916Z,88.09
2019-05-11T02:15:36.392Z,88.15
2019-05-11T02:18:07.738Z,88.10
2019-05-11T02:20:39.097Z,88.21
2019-05-11T02:23:10.520Z,88.52
2019-05-11T02:25:41.967Z,89.18
2019-05-11T02:28:13.311Z,89.70
2019-05-11T02:30:44.768Z,90.39
2019-05-11T02:33:16.114Z,90.21
2019-05-11T02:35:47.490Z,89.84
2019-05-11T02:38:18.861Z,89.66
2019-05-11T02:40:50.259Z,89.45
2019-05-11T02:43:21.718Z,89.00
2019-05-11T02:45:53.091Z,87.95
2019-05-11T02:48:24.507Z,86.69
2019-05-11T02:50:57.001Z,86.25
2019-05-11T02:53:29.786Z,85.59
2019-05-11T02:56:02.156Z,85.24
2019-05-11T02:58:33.558Z,84.55
2019-05-11T03:01:05.078Z,83.62
2019-05-11T03:03:36.603Z,82.02
2019-05-11T03:06:08.065Z,81.88
2019-05-11T03:08:39.367Z,80.43
2019-05-11T03:11:10.868Z,78.54
2019-05-11T03:13:42.398Z,77.08
2019-05-11T03:16:13.825Z,77.78
2019-05-11T03:18:46.151Z,79.08
2019-05-11T03:21:18.721Z,79.30
2019-05-11T03:23:50.245Z,78.17
2019-05-11T03:26:21.735Z,78.45
2019-05-11T03:28:53.235Z,77.53
2019-05-11T03:31:24.771Z,77.20
2019-05-11T03:33:56.421Z,76.17
2019-05-11T03:36:27.931Z,75.85
2019-05-11T03:38:59.336Z,75.52
2019-05-11T03:41:30.944Z,74.58
2019-05-11T03:44:02.325Z,74.09
2019-05-11T03:46:34.857Z,73.65
2019-05-11T03:49:06.276Z,74.01
2019-05-11T03:51:37.732Z,73.49
2019-05-11T03:54:09.093Z,72.99
2019-05-11T03:56:40.547Z,72.29
2019-05-11T03:59:11.955Z,73.26
2019-05-11T04:01:43.453Z,74.57
2019-05-11T04:04:16.585Z,72.77
2019-05-11T04:06:47.998Z,72.14
2019-05-11T04:09:19.475Z,71.47
2019-05-11T04:11:51.003Z,69.84
2019-05-11T04:14:22.388Z,70.60
2019-05-11T04:16:53.897Z,69.76
2019-05-11T04:19:25.408Z,70.46
2019-05-11T04:21:56.892Z,68.67
2019-05-11T04:24:28.317Z,68.35
2019-05-11T04:26:59.714Z,69.16
2019-05-11T04:29:31.191Z,67.65
2019-05-11T04:32:02.790Z,67.90
2019-05-11T04:34:34.407Z,66.61
2019-05-11T04:37:05.843Z,67.77
2019-05-11T04:39:37.289Z,65.79
2019-05-11T04:42:08.789Z,64.20
2019-05-11T04:44:40.197Z,64.45
2019-05-11T04:47:11.704Z,64.94
2019-05-11T04:49:43.052Z,64.41
2019-05-11T04:52:14.582Z,60.85
2019-05-11T04:54:46.311Z,62.25
2019-05-11T04:57:17.724Z,63.73
2019-05-11T04:59:49.135Z,60.59
2019-05-11T05:02:20.463Z,61.10
2019-05-11T05:04:51.996Z,58.19
2019-05-11T05:07:23.501Z,59.21
2019-05-11T05:09:55.785Z,59.07
2019-05-11T05:12:27.303Z,58.75
2019-05-11T05:14:58.648Z,59.78
2019-05-11T05:17:30.197Z,58.36
2019-05-11T05:20:01.645Z,59.25
2019-05-11T05:22:33.326Z,60.07
2019-05-11T05:25:06.433Z,60.64
2019-05-11T05:27:37.836Z,61.62
2019-05-11T05:30:09.488Z,63.14
2019-05-11T05:32:40.944Z,64.06
2019-05-11T05:35:12.445Z,65.01
2019-05-11T05:37:43.890Z,66.39
2019-05-11T05:40:15.363Z,65.85
2019-05-11T05:42:46.892Z,61.93
2019-05-11T05:45:18.474Z,59.93
2019-05-11T05:47:49.908Z,53.83
2019-05-11T05:50:21.357Z,53.96
2019-05-11T05:52:52.856Z,52.58
2019-05-11T05:55:24.473Z,49.99
2019-05-11T05:57:56.055Z,47.59
2019-05-11T06:00:27.540Z,50.65
2019-05-11T06:02:58.999Z,50.65
2019-05-11T06:05:30.474Z,50.27
2019-05-11T06:08:01.961Z,49.51
2019-05-11T06:10:33.390Z,46.05
2019-05-11T06:13:04.823Z,44.88
2019-05-11T06:15:36.405Z,44.72
2019-05-11T06:18:07.803Z,40.58
2019-05-11T06:20:39.137Z,38.41
2019-05-11T06:23:10.660Z,40.72
2019-05-11T06:25:42.177Z,41.49
2019-05-11T06:28:13.668Z,42.47
2019-05-11T06:30:45.081Z,46.35
2019-05-11T06:33:16.856Z,45.42
2019-05-11T06:35:48.385Z,42.51
2019-05-11T06:38:19.754Z,39.05
2019-05-11T06:40:51.103Z,39.62
2019-05-11T06:43:22.513Z,38.99
2019-05-11T06:45:53.794Z,37.22
2019-05-11T06:48:25.275Z,37.90
2019-05-11T06:50:56.569Z,41.72
2019-05-11T06:53:27.961Z,47.51
2019-05-11T06:55:59.260Z,49.56
2019-05-11T06:58:30.662Z,47.84
2019-05-11T07:01:01.966Z,48.81
2019-05-11T07:03:33.403Z,49.18
2019-05-11T07:06:04.651Z,49.69
2019-05-11T07:08:36.035Z,50.04
2019-05-11T07:11:07.424Z,54.25
2019-05-11T07:13:38.840Z,54.09
2019-05-11T07:16:10.212Z,53.14
2019-05-11T07:18:41.590Z,52.80
2019-05-11T07:21:12.955Z,51.33
2019-05-11T07:23:44.534Z,50.12
2019-05-11T07:26:16.603Z,50.05
2019-05-11T07:28:48.064Z,49.95
2019-05-11T07:31:19.366Z,49.40
2019-05-11T07:33:50.832Z,49.78
2019-05-11T07:36:22.328Z,51.67
2019-05-11T07:38:53.755Z,50.75
2019-05-11T07:41:25.037Z,49.27
2019-05-11T07:43:58.770Z,46.81
2019-05-11T07:46:29.245Z,48.47
2019-05-11T07:49:00.663Z,47.40
2019-05-11T07:51:31.996Z,47.23
2019-05-11T07:54:03.382Z,46.55
2019-05-11T07:56:35.796Z,48.91
2019-05-11T07:59:07.970Z,47.42
2019-05-11T08:01:39.395Z,47.06
2019-05-11T08:04:10.811Z,46.83
2019-05-11T08:06:42.206Z,47.28
2019-05-11T08:09:13.679Z,45.81
2019-05-11T08:11:44.993Z,45.56
2019-05-11T08:14:18.295Z,45.70
2019-05-11T08:16:49.321Z,45.56
2019-05-11T08:19:20.722Z,45.84
2019-05-11T08:21:53.073Z,45.24
2019-05-11T08:24:24.460Z,45.66
2019-05-11T08:26:58.244Z,47.74
2019-05-11T08:29:29.153Z,46.77
2019-05-11T08:32:00.551Z,46.92
2019-05-11T08:34:31.968Z,44.54
2019-05-11T08:37:03.312Z,45.45
2019-05-11T08:39:34.783Z,47.40
2019-05-11T08:42:08.529Z,45.87
2019-05-11T08:44:39.905Z,46.40
2019-05-11T08:47:11.343Z,45.68
2019-05-11T08:49:42.744Z,44.97
2019-05-11T08:52:14.033Z,47.30
2019-05-11T08:54:45.464Z,48.77
2019-05-11T08:57:17.987Z,49.44
2019-05-11T08:59:49.540Z,49.40
2019-05-11T09:02:20.950Z,49.19
2019-05-11T09:04:52.555Z,48.42
2019-05-11T09:07:23.980Z,47.45
2019-05-11T09:09:55.284Z,48.52
2019-05-11T09:12:28.855Z,50.93
2019-05-11T09:14:59.783Z,51.95
2019-05-11T09:17:31.110Z,52.29
2019-05-11T09:20:04.205Z,50.16
2019-05-11T09:22:37.957Z,50.28
2019-05-11T09:25:09.027Z,51.76
2019-05-11T09:27:43.349Z,52.84
2019-05-11T09:30:14.313Z,52.78
2019-05-11T09:32:47.817Z,52.25
2019-05-11T09:35:19.152Z,52.62
2019-05-11T09:37:50.983Z,53.59
2019-05-11T09:40:22.334Z,53.03
2019-05-11T09:42:53.664Z,52.78
2019-05-11T09:45:25.101Z,52.03
2019-05-11T09:47:58.269Z,51.92
2019-05-11T09:50:29.462Z,52.44
2019-05-11T09:53:00.803Z,53.15
2019-05-11T09:55:33.313Z,54.07
2019-05-11T09:58:04.726Z,54.80
2019-05-11T10:00:38.653Z,53.23
2019-05-11T10:03:09.341Z,53.32
2019-05-11T10:05:40.656Z,53.94
2019-05-11T10:08:12.056Z,53.10
2019-05-11T10:10:43.465Z,52.55
2019-05-11T10:13:14.755Z,52.26
2019-05-11T10:16:00.896Z,53.80
2019-05-11T10:18:19.709Z,52.91
2019-05-11T10:20:51.208Z,54.16
2019-05-11T10:23:22.540Z,55.81
2019-05-11T10:25:53.908Z,55.40
2019-05-11T10:28:25.258Z,55.85
2019-05-11T10:30:57.872Z,56.72
2019-05-11T10:33:29.449Z,56.69
2019-05-11T10:36:03.137Z,55.00
2019-05-11T10:38:34.274Z,56.29
2019-05-11T10:41:08.529Z,55.77
2019-05-11T10:43:39.138Z,55.87
2019-05-11T10:46:19.614Z,55.47
2019-05-11T10:48:43.764Z,55.53
2019-05-11T10:51:15.353Z,56.04
2019-05-11T10:53:49.542Z,56.69
2019-05-11T10:56:19.914Z,56.53
2019-05-11T10:58:51.302Z,57.65
2019-05-11T11:01:22.878Z,57.22
2019-05-11T11:03:54.314Z,57.51
2019-05-11T11:06:28.014Z,58.09
2019-05-11T11:08:59.049Z,57.96
2019-05-11T11:11:30.650Z,56.11
2019-05-11T11:14:02.149Z,57.08
2019-05-11T11:16:39.331Z,58.04
2019-05-11T11:19:07.648Z,56.57
2019-05-11T11:21:39.303Z,56.72
2019-05-11T11:24:10.824Z,56.52
2019-05-11T11:26:42.314Z,56.34
2019-05-11T11:29:13.824Z,56.98
2019-05-11T11:31:45.329Z,56.70
2019-05-11T11:34:18.857Z,53.64
2019-05-11T11:36:49.931Z,54.38
2019-05-11T11:39:21.448Z,54.73
2019-05-11T11:41:52.954Z,55.73
2019-05-11T11:44:24.481Z,55.48
2019-05-11T11:46:58.777Z,56.35
2019-05-11T11:49:29.060Z,56.94
2019-05-11T11:52:00.611Z,57.35
2019-05-11T11:54:31.987Z,58.79
2019-05-11T11:57:03.575Z,59.73
2019-05-11T11:59:34.954Z,59.87
2019-05-11T12:02:08.554Z,59.80
2019-05-11T12:04:40.364Z,60.77
2019-05-11T12:07:11.869Z,61.02
2019-05-11T12:09:43.377Z,61.69
2019-05-11T12:12:18.527Z,62.27
2019-05-11T12:14:49.730Z,62.82
2019-05-11T12:17:21.230Z,64.39
2019-05-11T12:19:52.605Z,65.22
2019-05-11T12:22:24.019Z,67.42
2019-05-11T12:24:55.538Z,68.98
2019-05-11T12:27:28.730Z,71.99
2019-05-11T12:30:00.351Z,70.93
2019-05-11T12:32:38.313Z,71.47
2019-05-11T12:35:09.299Z,70.18
2019-05-11T12:37:40.891Z,71.27
2019-05-11T12:40:13.529Z,71.23
2019-05-11T12:42:45.059Z,70.89
2019-05-11T12:45:18.208Z,70.25
2019-05-11T12:47:49.915Z,70.42
2019-05-11T12:50:22.425Z,68.64
2019-05-11T12:52:56.000Z,69.92
2019-05-11T12:55:28.704Z,69.22
2019-05-11T12:58:00.463Z,69.47
2019-05-11T13:00:31.976Z,69.69
2019-05-11T13:03:03.515Z,72.54
2019-05-11T13:05:35.021Z,72.91
2019-05-11T13:08:07.948Z,75.56
2019-05-11T13:10:39.759Z,75.66
2019-05-11T13:13:11.259Z,77.16
2019-05-11T13:15:42.657Z,76.52
2019-05-11T13:18:14.155Z,76.85
2019-05-11T13:20:48.254Z,77.09
2019-05-11T13:23:19.924Z,77.24
2019-05-11T13:25:51.430Z,77.79
2019-05-11T13:28:22.932Z,78.58
2019-05-11T13:30:54.421Z,78.89
2019-05-11T13:33:27.809Z,78.52
2019-05-11T13:35:58.862Z,79.17
2019-05-11T13:38:30.364Z,78.28
2019-05-11T13:41:01.864Z,80.14
2019-05-11T13:43:33.406Z,80.19
2019-05-11T13:46:04.894Z,81.33
2019-05-11T13:48:38.579Z,79.73
2019-05-11T13:51:09.705Z,81.46
2019-05-11T13:53:41.186Z,81.13
2019-05-11T13:56:12.684Z,80.74
2019-05-11T13:58:45.447Z,79.73
2019-05-11T14:01:18.415Z,79.43
2019-05-11T14:03:50.149Z,79.04
2019-05-11T14:06:21.545Z,77.48
2019-05-11T14:08:53.058Z,78.47
2019-05-11T14:11:24.649Z,76.02
2019-05-11T14:13:57.898Z,76.30
2019-05-11T14:16:29.431Z,78.28
2019-05-11T14:19:01.353Z,76.54
2019-05-11T14:21:32.967Z,76.40
2019-05-11T14:24:04.598Z,77.26
2019-05-11T14:26:38.389Z,77.74
2019-05-11T14:29:09.381Z,75.49
2019-05-11T14:31:41.010Z,76.78
2019-05-11T14:34:13.433Z,75.83
2019-05-11T14:36:44.868Z,74.20
2019-05-11T14:39:18.777Z,74.25
2019-05-11T14:41:49.557Z,74.37
2019-05-11T14:44:20.971Z,74.03
2019-05-11T14:46:52.558Z,73.93
2019-05-11T14:49:24.098Z,73.84
2019-05-11T14:51:57.731Z,73.85
2019-05-11T14:54:29.708Z,72.19
2019-05-11T14:57:01.129Z,73.21
2019-05-11T14:59:32.642Z,73.18
2019-05-11T15:02:08.670Z,72.43
2019-05-11T15:04:39.736Z,72.53
2019-05-11T15:07:10.849Z,73.04
2019-05-11T15:09:42.423Z,73.74
2019-05-11T15:12:13.923Z,71.90
2019-05-11T15:14:45.432Z,72.83
2019-05-11T15:17:18.616Z,73.32
2019-05-11T15:19:50.241Z,72.84
2019-05-11T15:22:22.799Z,72.98
2019-05-11T15:24:54.381Z,71.96
2019-05-11T15:27:28.837Z,72.29
2019-05-11T15:30:00.071Z,72.94
2019-05-11T15:32:31.664Z,72.56
2019-05-11T15:35:03.109Z,71.64
2019-05-11T15:37:34.568Z,71.37
2019-05-11T15:40:14.995Z,71.82
2019-05-11T15:42:48.618Z,72.24
2019-05-11T15:45:20.198Z,73.62
2019-05-11T15:47:51.710Z,74.03
2019-05-11T15:50:23.334Z,74.13
2019-05-11T15:52:54.829Z,75.32
2019-05-11T15:55:27.883Z,74.67
2019-05-11T15:57:59.379Z,76.09
2019-05-11T16:00:32.042Z,76.16
2019-05-11T16:03:03.648Z,76.88
2019-05-11T16:05:35.200Z,77.18
2019-05-11T16:08:08.306Z,77.87
2019-05-11T16:10:40.193Z,77.90
2019-05-11T16:13:11.598Z,77.92
2019-05-11T16:15:43.326Z,78.28
2019-05-11T16:18:15.776Z,78.74
2019-05-11T16:20:49.930Z,78.74
2019-05-11T16:23:21.541Z,79.19
2019-05-11T16:25:53.047Z,79.20
2019-05-11T16:28:27.702Z,79.90
2019-05-11T16:30:58.393Z,79.85
2019-05-11T16:33:30.244Z,80.09
2019-05-11T16:36:01.811Z,80.22
2019-05-11T16:38:33.425Z,80.68
2019-05-11T16:41:04.932Z,80.80
2019-05-11T16:43:38.352Z,80.26
2019-05-11T16:46:09.630Z,80.65
2019-05-11T16:48:41.005Z,80.34
2019-05-11T16:51:12.595Z,80.91
2019-05-11T16:53:44.228Z,80.76
2019-05-11T16:56:15.772Z,81.92
2019-05-11T16:58:48.494Z,81.69
2019-05-11T17:01:20.098Z,81.56
2019-05-11T17:03:51.612Z,81.48
2019-05-11T17:06:23.080Z,82.11
2019-05-11T17:08:54.502Z,81.95
2019-05-11T17:11:25.915Z,82.18
2019-05-11T17:13:57.636Z,82.41
2019-05-11T17:16:29.128Z,82.56
2019-05-11T17:19:00.594Z,82.44
2019-05-11T17:21:32.095Z,82.57
2019-05-11T17:24:03.437Z,82.58
2019-05-11T17:26:35.068Z,82.94
2019-05-11T17:29:06.609Z,83.49
2019-05-11T17:31:38.271Z,83.01
2019-05-11T17:34:10.222Z,83.14
2019-05-11T17:36:41.716Z,83.21
2019-05-11T17:39:13.291Z,83.06
2019-05-11T17:41:47.977Z,83.81
2019-05-11T17:44:19.514Z,84.05
2019-05-11T17:46:50.995Z,84.04
2019-05-11T17:49:22.397Z,84.11
2019-05-11T17:51:53.842Z,84.44
2019-05-11T17:54:25.341Z,84.75
2019-05-11T17:56:57.795Z,85.17
2019-05-11T17:59:29.543Z,85.35
2019-05-11T18:02:01.197Z,85.58
2019-05-11T18:04:32.910Z,85.70
2019-05-11T18:07:04.493Z,85.80
2019-05-11T18:09:37.945Z,86.09
2019-05-11T18:12:09.847Z,86.44
2019-05-11T18:14:41.661Z,86.34
2019-05-11T18:17:13.161Z,86.23
2019-05-11T18:19:44.706Z,86.32
2019-05-11T18:22:17.814Z,86.44
2019-05-11T18:24:49.371Z,86.98
2019-05-11T18:27:20.834Z,87.40
2019-05-11T18:29:52.388Z,87.32
2019-05-11T18:32:23.847Z,87.29
2019-05-11T18:34:55.262Z,87.26
2019-05-11T18:37:28.058Z,87.10
2019-05-11T18:39:59.664Z,87.03
2019-05-11T18:42:31.180Z,87.56
2019-05-11T18:45:02.659Z,87.64
2019-05-11T18:47:34.140Z,87.67
2019-05-11T18:50:06.104Z,87.67
2019-05-11T18:52:37.694Z,87.35
2019-05-11T18:55:09.205Z,87.25
2019-05-11T18:57:40.808Z,87.46
2019-05-11T19:00:12.464Z,87.76
2019-05-11T19:02:43.963Z,87.86
2019-05-11T19:05:17.985Z,88.23
2019-05-11T19:07:49.781Z,88.47
2019-05-11T19:10:22.158Z,88.45
2019-05-11T19:12:53.594Z,88.64
2019-05-11T19:15:25.083Z,88.64
2019-05-11T19:17:58.059Z,88.55
2019-05-11T19:20:44.241Z,88.40
2019-05-11T19:23:02.709Z,87.91
2019-05-11T19:25:34.178Z,88.25
2019-05-11T19:28:08.324Z,89.07
2019-05-11T19:30:38.827Z,88.73
2019-05-11T19:33:11.218Z,88.72
2019-05-11T19:35:42.951Z,89.27
2019-05-11T19:38:14.476Z,88.92
2019-05-11T19:40:47.884Z,89.13
2019-05-11T19:43:19.172Z,89.05
2019-05-11T19:45:50.581Z,89.48
2019-05-11T19:48:22.171Z,89.41
2019-05-11T19:51:04.616Z,89.78
2019-05-11T19:53:28.105Z,89.38
2019-05-11T19:55:59.648Z,88.93
2019-05-11T19:58:31.063Z,88.66
2019-05-11T20:01:02.435Z,88.45
2019-05-11T20:03:33.939Z,88.81
2019-05-11T20:06:05.313Z,89.63
2019-05-11T20:08:36.812Z,89.87
2019-05-11T20:11:09.285Z,89.73
2019-05-11T20:13:40.707Z,89.76
2019-05-11T20:16:12.105Z,89.35
2019-05-11T20:18:43.590Z,89.39
2019-05-11T20:21:19.573Z,89.33
2019-05-11T20:23:48.575Z,89.03
2019-05-11T20:26:20.131Z,88.91
2019-05-11T20:28:51.764Z,88.66
2019-05-11T20:31:23.162Z,88.61
2019-05-11T20:33:54.652Z,88.95
2019-05-11T20:36:26.138Z,88.76
2019-05-11T20:38:57.618Z,89.00
2019-05-11T20:41:29.080Z,88.97
2019-05-11T20:44:00.638Z,88.91
2019-05-11T20:46:32.009Z,88.37
2019-05-11T20:49:03.539Z,88.08
2019-05-11T20:51:37.211Z,88.96
2019-05-11T20:54:08.790Z,89.07
2019-05-11T20:56:40.517Z,88.95
2019-05-11T20:59:12.301Z,89.10
2019-05-11T21:01:43.861Z,89.13
2019-05-11T21:04:15.288Z,89.40
2019-05-11T21:06:47.522Z,89.36
2019-05-11T21:09:20.147Z,89.39
2019-05-11T21:11:51.566Z,89.33
2019-05-11T21:14:23.072Z,89.20
2019-05-11T21:16:54.439Z,89.55
2019-05-11T21:19:28.211Z,89.82
2019-05-11T21:21:59.219Z,90.11
2019-05-11T21:24:30.735Z,90.18
2019-05-11T21:27:02.236Z,90.11
2019-05-11T21:29:33.687Z,90.72
2019-05-11T21:32:05.138Z,90.56
2019-05-11T21:34:38.363Z,90.71
2019-05-11T21:37:09.736Z,90.87
2019-05-11T21:39:41.330Z,90.54
2019-05-11T21:42:13.850Z,90.72
2019-05-11T21:44:45.363Z,90.71
2019-05-11T21:47:18.337Z,91.03
2019-05-11T21:49:49.886Z,91.27
2019-05-11T21:52:21.291Z,91.66
2019-05-11T21:54:52.800Z,91.77
2019-05-11T21:57:24.201Z,92.04
2019-05-11T21:59:57.417Z,92.11
2019-05-11T22:02:28.906Z,92.21
2019-05-11T22:05:03.138Z,92.12
2019-05-11T22:07:35.222Z,91.82
2019-05-11T22:10:09.031Z,91.83
2019-05-11T22:12:40.526Z,91.67
2019-05-11T22:15:12.426Z,91.87
2019-05-11T22:17:43.883Z,91.92
2019-05-11T22:20:15.328Z,91.93
2019-05-11T22:22:47.631Z,92.21
2019-05-11T22:25:19.265Z,91.79
2019-05-11T22:27:52.359Z,91.33
2019-05-11T22:30:23.795Z,90.97
2019-05-11T22:32:55.243Z,90.88
2019-05-11T22:35:28.626Z,90.94
2019-05-11T22:37:59.795Z,91.67
2019-05-11T22:40:31.281Z,92.22
2019-05-11T22:43:02.686Z,92.19
2019-05-11T22:45:34.164Z,91.90
2019-05-11T22:48:07.824Z,92.00
2019-05-11T22:50:38.917Z,91.38
2019-05-11T22:53:11.547Z,91.14
2019-05-11T22:55:43.240Z,91.23
2019-05-11T22:58:14.658Z,91.15
2019-05-11T23:00:46.662Z,91.22
2019-05-11T23:03:18.858Z,91.73
2019-05-11T23:05:51.413Z,92.08
2019-05-11T23:08:22.724Z,92.20
2019-05-11T23:10:55.675Z,91.97
2019-05-11T23:13:27.889Z,91.66
2019-05-11T23:15:59.696Z,91.50
2019-05-11T23:18:31.177Z,91.64
2019-05-11T23:21:02.646Z,91.52
2019-05-11T23:23:34.069Z,91.03
2019-05-11T23:26:05.523Z,90.71
2019-05-11T23:28:37.876Z,91.81
2019-05-11T23:31:09.543Z,92.26
2019-05-11T23:33:40.841Z,91.79
2019-05-11T23:36:12.268Z,91.77
2019-05-11T23:38:43.629Z,92.06
2019-05-11T23:41:24.253Z,92.18
2019-05-11T23:43:48.327Z,92.12
2019-05-11T23:46:19.849Z,92.24
2019-05-11T23:48:51.329Z,91.98
2019-05-11T23:51:22.827Z,92.08
2019-05-11T23:53:55.355Z,91.48
2019-05-11T23:56:28.155Z,91.15
2019-05-11T23:58:59.792Z,91.44
